createdAt,value
2017-05-07T00:00:51.435Z,0
2017-05-07T00:02:01.701Z,0
2017-05-07T00:03:11.973Z,0
2017-05-07T00:04:21.933Z,0
2017-05-07T00:05:31.886Z,0
2017-05-07T00:06:42.167Z,0
2017-05-07T00:07:52.433Z,0
2017-05-07T00:09:02.710Z,0
2017-05-07T00:10:12.351Z,0
2017-05-07T00:11:22.622Z,0
2017-05-07T00:12:32.889Z,0
2017-05-07T00:13:43.216Z,0
2017-05-07T00:14:53.168Z,0
2017-05-07T00:16:03.438Z,0
2017-05-07T00:17:13.707Z,0
2017-05-07T00:18:23.973Z,0
2017-05-07T00:19:34.237Z,0
2017-05-07T00:20:44.499Z,0
2017-05-07T00:21:54.444Z,0
2017-05-07T00:23:04.712Z,0
2017-05-07T00:24:14.668Z,0
2017-05-07T00:25:24.934Z,0
2017-05-07T00:26:35.203Z,0
2017-05-07T00:27:45.468Z,0
2017-05-07T00:28:55.739Z,0
2017-05-07T00:30:05.688Z,0
2017-05-07T00:31:15.638Z,0
2017-05-07T00:32:25.907Z,0
2017-05-07T00:33:36.187Z,0
2017-05-07T00:34:46.454Z,0
2017-05-07T00:35:56.720Z,0
2017-05-07T00:37:06.988Z,0
2017-05-07T00:38:16.628Z,0
2017-05-07T00:39:26.892Z,0
2017-05-07T00:40:37.164Z,0
2017-05-07T00:41:47.474Z,0
2017-05-07T00:42:57.435Z,0
2017-05-07T00:44:07.392Z,0
2017-05-07T00:45:17.374Z,0
2017-05-07T00:46:27.647Z,0
2017-05-07T00:47:37.920Z,0
2017-05-07T00:48:47.881Z,0
2017-05-07T00:49:58.153Z,0
2017-05-07T00:51:08.423Z,0
2017-05-07T00:52:18.690Z,0
2017-05-07T00:53:28.956Z,0
2017-05-07T00:54:38.913Z,0
2017-05-07T00:55:49.183Z,0
2017-05-07T00:56:59.491Z,0
2017-05-07T00:58:09.447Z,0
2017-05-07T00:59:19.405Z,0
2017-05-07T01:00:29.670Z,0
2017-05-07T01:01:39.946Z,0
2017-05-07T01:02:50.216Z,0
2017-05-07T01:04:00.482Z,0
2017-05-07T01:05:10.115Z,0
2017-05-07T01:06:20.069Z,0
2017-05-07T01:07:30.332Z,0
2017-05-07T01:08:39.653Z,0
2017-05-07T01:09:49.918Z,0
2017-05-07T01:10:59.872Z,0
2017-05-07T01:12:10.141Z,0
2017-05-07T01:13:20.092Z,0
2017-05-07T01:14:30.351Z,0
2017-05-07T01:15:40.302Z,0
2017-05-07T01:16:50.258Z,0
2017-05-07T01:18:00.214Z,0
2017-05-07T01:19:10.479Z,0
2017-05-07T01:20:20.434Z,0
2017-05-07T01:21:29.761Z,0
2017-05-07T01:22:39.708Z,0
2017-05-07T01:23:49.973Z,0
2017-05-07T01:25:00.239Z,0
2017-05-07T01:26:10.500Z,0
2017-05-07T01:27:20.459Z,0
2017-05-07T01:28:30.738Z,0
2017-05-07T01:29:41.003Z,0
2017-05-07T01:30:51.275Z,0
2017-05-07T01:32:01.536Z,0
2017-05-07T01:33:11.530Z,0
2017-05-07T01:34:21.478Z,0
2017-05-07T01:35:30.816Z,0
2017-05-07T01:36:41.076Z,0
2017-05-07T01:37:51.342Z,0
2017-05-07T01:39:01.607Z,0
2017-05-07T01:40:11.877Z,0
2017-05-07T01:41:22.145Z,0
2017-05-07T01:42:32.093Z,0
2017-05-07T01:43:42.362Z,0
2017-05-07T01:44:52.315Z,0
2017-05-07T01:46:02.580Z,0
2017-05-07T01:47:12.840Z,0
2017-05-07T01:48:23.116Z,0
2017-05-07T01:49:32.755Z,0
2017-05-07T01:50:43.027Z,0
2017-05-07T01:51:52.984Z,0
2017-05-07T01:53:03.244Z,0
2017-05-07T01:54:13.202Z,0
2017-05-07T01:55:22.843Z,0
2017-05-07T01:56:33.106Z,0
2017-05-07T01:57:43.373Z,0
2017-05-07T01:58:53.675Z,0
2017-05-07T02:00:03.942Z,0
2017-05-07T02:01:13.897Z,0
2017-05-07T02:02:24.173Z,0
2017-05-07T02:03:34.477Z,0
2017-05-07T02:04:44.744Z,0
2017-05-07T02:05:55.003Z,0
2017-05-07T02:07:05.274Z,0
2017-05-07T02:08:15.540Z,0
2017-05-07T02:09:26.063Z,0
2017-05-07T02:10:36.014Z,0
2017-05-07T02:11:46.274Z,0
2017-05-07T02:12:56.551Z,0
2017-05-07T02:14:06.821Z,0
2017-05-07T02:15:18.777Z,0
2017-05-07T02:16:29.039Z,0
2017-05-07T02:17:39.308Z,0
2017-05-07T02:18:49.608Z,0
2017-05-07T02:19:59.875Z,0
2017-05-07T02:21:10.028Z,0
2017-05-07T02:22:20.296Z,0
2017-05-07T02:23:30.560Z,0
2017-05-07T02:24:40.820Z,0
2017-05-07T02:25:51.085Z,0
2017-05-07T02:27:03.668Z,0
2017-05-07T02:28:13.308Z,0
2017-05-07T02:29:22.943Z,0
2017-05-07T02:30:32.899Z,0
2017-05-07T02:31:42.853Z,0
2017-05-07T02:32:52.803Z,0
2017-05-07T02:34:03.071Z,0
2017-05-07T02:35:13.336Z,0
2017-05-07T02:36:23.599Z,0
2017-05-07T02:37:33.558Z,0
2017-05-07T02:38:43.824Z,0
2017-05-07T02:39:54.101Z,0
2017-05-07T02:41:04.371Z,0
2017-05-07T02:42:14.012Z,0
2017-05-07T02:43:24.276Z,0
2017-05-07T02:44:34.539Z,0
2017-05-07T02:45:44.804Z,0
2017-05-07T02:46:55.069Z,0
2017-05-07T02:48:05.334Z,0
2017-05-07T02:49:14.973Z,0
2017-05-07T02:50:24.923Z,0
2017-05-07T02:51:34.874Z,0
2017-05-07T02:52:45.146Z,0
2017-05-07T02:53:55.414Z,0
2017-05-07T02:55:05.690Z,0
2017-05-07T02:56:15.635Z,0
2017-05-07T02:57:25.902Z,0
2017-05-07T02:58:35.864Z,0
2017-05-07T02:59:46.127Z,0
2017-05-07T03:00:56.390Z,0
2017-05-07T03:02:06.345Z,0
2017-05-07T03:03:16.293Z,0
2017-05-07T03:04:26.562Z,0
2017-05-07T03:05:36.509Z,0
2017-05-07T03:06:46.772Z,0
2017-05-07T03:07:57.083Z,0
2017-05-07T03:09:07.354Z,0
2017-05-07T03:10:17.621Z,0
2017-05-07T03:11:27.882Z,0
2017-05-07T03:12:37.837Z,0
2017-05-07T03:13:48.109Z,0
2017-05-07T03:14:58.370Z,0
2017-05-07T03:16:08.630Z,0
2017-05-07T03:17:18.295Z,0
2017-05-07T03:18:28.256Z,0
2017-05-07T03:19:38.520Z,0
2017-05-07T03:20:48.784Z,0
2017-05-07T03:21:59.060Z,5
2017-05-07T03:23:09.331Z,5
2017-05-07T03:24:19.282Z,5
2017-05-07T03:25:29.550Z,5
2017-05-07T03:26:39.197Z,5
2017-05-07T03:27:49.498Z,5
2017-05-07T03:28:59.799Z,5
2017-05-07T03:30:09.753Z,5
2017-05-07T03:31:20.023Z,5
2017-05-07T03:32:30.288Z,5
2017-05-07T03:33:40.262Z,5
2017-05-07T03:34:50.523Z,5
2017-05-07T03:36:00.793Z,10
2017-05-07T03:37:11.064Z,10
2017-05-07T03:38:21.321Z,10
2017-05-07T03:39:31.585Z,10
2017-05-07T03:40:41.529Z,10
2017-05-07T03:41:51.789Z,10
2017-05-07T03:43:02.056Z,10
2017-05-07T03:44:11.693Z,10
2017-05-07T03:45:21.953Z,10
2017-05-07T03:46:32.220Z,10
2017-05-07T03:47:42.483Z,10
2017-05-07T03:48:52.745Z,10
2017-05-07T03:50:03.008Z,10
2017-05-07T03:51:12.962Z,10
2017-05-07T03:52:22.945Z,10
2017-05-07T03:53:33.216Z,10
2017-05-07T03:54:43.481Z,10
2017-05-07T03:55:53.752Z,10
2017-05-07T03:57:04.017Z,10
2017-05-07T03:58:13.963Z,15
2017-05-07T03:59:24.231Z,15
2017-05-07T04:00:34.497Z,15
2017-05-07T04:01:44.758Z,15
2017-05-07T04:02:55.052Z,10
2017-05-07T04:04:05.320Z,10
2017-05-07T04:05:14.966Z,15
2017-05-07T04:06:25.226Z,15
2017-05-07T04:07:35.491Z,15
2017-05-07T04:08:45.755Z,15
2017-05-07T04:09:56.015Z,15
2017-05-07T04:11:06.275Z,15
2017-05-07T04:12:16.532Z,15
2017-05-07T04:13:26.795Z,15
2017-05-07T04:14:37.059Z,15
2017-05-07T04:15:47.363Z,15
2017-05-07T04:16:57.627Z,15
2017-05-07T04:18:07.895Z,15
2017-05-07T04:19:17.531Z,15
2017-05-07T04:20:27.789Z,15
2017-05-07T04:21:38.048Z,15
2017-05-07T04:22:48.313Z,20
2017-05-07T04:23:58.576Z,20
2017-05-07T04:25:08.840Z,20
2017-05-07T04:26:18.786Z,15
2017-05-07T04:27:28.741Z,20
2017-05-07T04:28:39.000Z,20
2017-05-07T04:29:49.266Z,20
2017-05-07T04:30:59.533Z,20
2017-05-07T04:32:09.482Z,25
2017-05-07T04:33:19.749Z,25
2017-05-07T04:34:30.011Z,25
2017-05-07T04:35:40.277Z,30
2017-05-07T04:36:50.543Z,30
2017-05-07T04:38:00.817Z,30
2017-05-07T04:39:11.077Z,35
2017-05-07T04:40:21.335Z,35
2017-05-07T04:41:31.592Z,35
2017-05-07T04:42:41.546Z,40
2017-05-07T04:43:51.816Z,35
2017-05-07T04:45:02.089Z,35
2017-05-07T04:46:12.350Z,40
2017-05-07T04:47:21.987Z,40
2017-05-07T04:48:32.257Z,40
2017-05-07T04:49:42.515Z,45
2017-05-07T04:50:52.795Z,45
2017-05-07T04:52:02.750Z,45
2017-05-07T04:53:13.021Z,50
2017-05-07T04:54:23.291Z,55
2017-05-07T04:55:32.929Z,60
2017-05-07T04:56:43.194Z,65
2017-05-07T04:57:53.465Z,65
2017-05-07T04:59:03.729Z,65
2017-05-07T05:00:13.992Z,70
2017-05-07T05:01:24.251Z,70
2017-05-07T05:02:34.509Z,70
2017-05-07T05:03:44.774Z,70
2017-05-07T05:04:55.033Z,65
2017-05-07T05:06:05.298Z,65
2017-05-07T05:07:15.243Z,65
2017-05-07T05:08:25.510Z,65
2017-05-07T05:09:35.768Z,65
2017-05-07T05:10:46.030Z,65
2017-05-07T05:11:56.292Z,70
2017-05-07T05:13:06.556Z,70
2017-05-07T05:14:16.819Z,70
2017-05-07T05:15:27.080Z,75
2017-05-07T05:16:37.031Z,75
2017-05-07T05:17:47.294Z,80
2017-05-07T05:18:57.550Z,80
2017-05-07T05:20:07.814Z,85
2017-05-07T05:21:18.079Z,90
2017-05-07T05:22:28.346Z,95
2017-05-07T05:23:38.603Z,100
2017-05-07T05:24:48.871Z,105
2017-05-07T05:25:58.820Z,105
2017-05-07T05:27:09.078Z,110
2017-05-07T05:28:19.038Z,115
2017-05-07T05:29:29.307Z,120
2017-05-07T05:30:39.258Z,125
2017-05-07T05:31:49.209Z,125
2017-05-07T05:32:59.467Z,125
2017-05-07T05:34:09.735Z,130
2017-05-07T05:35:19.996Z,130
2017-05-07T05:36:30.256Z,130
2017-05-07T05:37:40.526Z,130
2017-05-07T05:38:50.787Z,130
2017-05-07T05:40:01.053Z,130
2017-05-07T05:41:11.316Z,130
2017-05-07T05:42:21.259Z,135
2017-05-07T05:43:31.204Z,140
2017-05-07T05:44:41.149Z,145
2017-05-07T05:45:51.408Z,145
2017-05-07T05:47:01.668Z,150
2017-05-07T05:48:11.925Z,155
2017-05-07T05:49:22.210Z,160
2017-05-07T05:50:32.478Z,160
2017-05-07T05:51:42.737Z,155
2017-05-07T05:52:53.004Z,150
2017-05-07T05:54:03.286Z,145
2017-05-07T05:55:13.548Z,145
2017-05-07T05:56:23.809Z,150
2017-05-07T05:57:34.069Z,160
2017-05-07T05:58:44.022Z,170
2017-05-07T05:59:54.283Z,175
2017-05-07T06:01:04.547Z,180
2017-05-07T06:02:14.502Z,185
2017-05-07T06:03:24.772Z,185
2017-05-07T06:04:35.036Z,190
2017-05-07T06:05:45.299Z,200
2017-05-07T06:06:55.559Z,210
2017-05-07T06:08:05.825Z,215
2017-05-07T06:09:15.780Z,215
2017-05-07T06:10:26.046Z,220
2017-05-07T06:11:36.337Z,225
2017-05-07T06:12:46.598Z,225
2017-05-07T06:13:56.860Z,230
2017-05-07T06:15:07.129Z,230
2017-05-07T06:16:16.763Z,230
2017-05-07T06:17:27.023Z,235
2017-05-07T06:18:37.294Z,240
2017-05-07T06:19:47.265Z,235
2017-05-07T06:20:57.523Z,235
2017-05-07T06:22:07.161Z,235
2017-05-07T06:23:16.795Z,235
2017-05-07T06:24:27.062Z,235
2017-05-07T06:25:37.316Z,230
2017-05-07T06:26:47.580Z,235
2017-05-07T06:27:57.839Z,235
2017-05-07T06:29:07.782Z,245
2017-05-07T06:30:17.721Z,245
2017-05-07T06:31:27.991Z,250
2017-05-07T06:32:38.253Z,260
2017-05-07T06:33:48.509Z,275
2017-05-07T06:34:58.776Z,290
2017-05-07T06:36:09.052Z,305
2017-05-07T06:37:18.691Z,315
2017-05-07T06:38:28.640Z,335
2017-05-07T06:39:38.904Z,345
2017-05-07T06:40:49.166Z,355
2017-05-07T06:41:59.121Z,355
2017-05-07T06:43:09.395Z,350
2017-05-07T06:44:19.343Z,350
2017-05-07T06:45:29.599Z,350
2017-05-07T06:46:39.868Z,355
2017-05-07T06:47:49.817Z,355
2017-05-07T06:49:00.084Z,355
2017-05-07T06:50:10.358Z,350
2017-05-07T06:51:20.306Z,330
2017-05-07T06:52:30.252Z,330
2017-05-07T06:53:40.520Z,335
2017-05-07T06:54:50.788Z,335
2017-05-07T06:56:01.049Z,335
2017-05-07T06:57:10.686Z,335
2017-05-07T06:58:20.639Z,335
2017-05-07T06:59:30.909Z,335
2017-05-07T07:00:40.546Z,325
2017-05-07T07:01:50.811Z,315
2017-05-07T07:03:01.070Z,305
2017-05-07T07:04:11.047Z,300
2017-05-07T07:05:20.991Z,295
2017-05-07T07:06:31.255Z,290
2017-05-07T07:07:41.521Z,290
2017-05-07T07:08:51.786Z,290
2017-05-07T07:10:02.047Z,290
2017-05-07T07:11:12.000Z,290
2017-05-07T07:12:21.951Z,290
2017-05-07T07:13:32.217Z,290
2017-05-07T07:14:42.481Z,290
2017-05-07T07:15:52.741Z,290
2017-05-07T07:17:02.685Z,290
2017-05-07T07:18:12.637Z,295
2017-05-07T07:19:22.899Z,290
2017-05-07T07:20:33.169Z,290
2017-05-07T07:21:43.121Z,285
2017-05-07T07:22:53.388Z,280
2017-05-07T07:24:03.649Z,275
2017-05-07T07:25:13.925Z,275
2017-05-07T07:26:23.885Z,280
2017-05-07T07:27:34.146Z,290
2017-05-07T07:28:44.406Z,290
2017-05-07T07:29:54.668Z,290
2017-05-07T07:31:04.927Z,285
2017-05-07T07:32:14.882Z,275
2017-05-07T07:33:24.828Z,265
2017-05-07T07:34:34.785Z,265
2017-05-07T07:35:45.043Z,270
2017-05-07T07:36:55.300Z,260
2017-05-07T07:38:05.570Z,260
2017-05-07T07:39:15.836Z,260
2017-05-07T07:40:26.106Z,260
2017-05-07T07:41:36.374Z,255
2017-05-07T07:42:46.639Z,255
2017-05-07T07:43:56.906Z,250
2017-05-07T07:45:07.170Z,260
2017-05-07T07:46:17.121Z,275
2017-05-07T07:47:27.382Z,255
2017-05-07T07:48:37.643Z,260
2017-05-07T07:49:47.906Z,285
2017-05-07T07:50:58.167Z,270
2017-05-07T07:52:08.117Z,260
2017-05-07T07:53:18.072Z,270
2017-05-07T07:54:28.021Z,250
2017-05-07T07:55:38.283Z,245
2017-05-07T07:56:48.230Z,230
2017-05-07T07:57:58.487Z,220
2017-05-07T07:59:08.765Z,210
2017-05-07T08:00:18.715Z,210
2017-05-07T08:01:28.660Z,205
2017-05-07T08:02:38.928Z,205
2017-05-07T08:03:49.194Z,200
2017-05-07T08:04:59.465Z,200
2017-05-07T08:06:09.731Z,200
2017-05-07T08:07:19.688Z,195
2017-05-07T08:08:29.956Z,190
2017-05-07T08:09:40.219Z,220
2017-05-07T08:10:50.484Z,220
2017-05-07T08:12:00.751Z,210
2017-05-07T08:13:11.015Z,205
2017-05-07T08:14:20.962Z,205
2017-05-07T08:15:31.221Z,205
2017-05-07T08:16:41.478Z,200
2017-05-07T08:17:51.742Z,200
2017-05-07T08:19:01.691Z,205
2017-05-07T08:20:11.962Z,205
2017-05-07T08:21:22.225Z,205
2017-05-07T08:22:32.494Z,205
2017-05-07T08:23:42.758Z,205
2017-05-07T08:24:53.017Z,205
2017-05-07T08:26:03.283Z,205
2017-05-07T08:27:13.545Z,205
2017-05-07T08:28:23.806Z,205
2017-05-07T08:29:34.063Z,205
2017-05-07T08:30:43.701Z,205
2017-05-07T08:31:53.960Z,205
2017-05-07T08:33:04.227Z,205
2017-05-07T08:34:14.181Z,205
2017-05-07T08:35:23.816Z,205
2017-05-07T08:36:34.086Z,205
2017-05-07T08:37:44.040Z,205
2017-05-07T08:38:54.300Z,205
2017-05-07T08:40:04.557Z,205
2017-05-07T08:41:14.506Z,210
2017-05-07T08:42:24.456Z,210
2017-05-07T08:43:34.723Z,210
2017-05-07T08:44:44.984Z,215
2017-05-07T08:45:55.251Z,215
2017-05-07T08:47:05.514Z,210
2017-05-07T08:48:15.462Z,210
2017-05-07T08:49:25.730Z,210
2017-05-07T08:50:36.002Z,210
2017-05-07T08:51:46.268Z,210
2017-05-07T08:52:56.539Z,210
2017-05-07T08:54:06.800Z,210
2017-05-07T08:55:17.070Z,210
2017-05-07T08:56:27.333Z,215
2017-05-07T08:57:37.630Z,215
2017-05-07T08:58:47.936Z,215
2017-05-07T08:59:58.202Z,215
2017-05-07T09:01:08.471Z,215
2017-05-07T09:02:18.734Z,215
2017-05-07T09:03:28.374Z,215
2017-05-07T09:04:38.642Z,215
2017-05-07T09:05:48.910Z,215
2017-05-07T09:06:59.179Z,215
2017-05-07T09:08:09.442Z,215
2017-05-07T09:09:19.725Z,215
2017-05-07T09:10:29.989Z,215
2017-05-07T09:11:40.254Z,215
2017-05-07T09:12:50.520Z,215
2017-05-07T09:14:00.476Z,215
2017-05-07T09:15:10.419Z,215
2017-05-07T09:16:20.683Z,215
2017-05-07T09:17:30.950Z,215
2017-05-07T09:18:41.218Z,215
2017-05-07T09:19:51.166Z,220
2017-05-07T09:21:01.114Z,220
2017-05-07T09:22:11.382Z,220
2017-05-07T09:23:21.644Z,220
2017-05-07T09:24:31.897Z,220
2017-05-07T09:25:41.846Z,220
2017-05-07T09:26:52.110Z,220
2017-05-07T09:28:02.369Z,220
2017-05-07T09:29:12.317Z,220
2017-05-07T09:30:22.579Z,220
2017-05-07T09:31:32.840Z,220
2017-05-07T09:32:43.109Z,220
2017-05-07T09:33:53.380Z,220
2017-05-07T09:35:03.656Z,220
2017-05-07T09:36:13.918Z,225
2017-05-07T09:37:24.185Z,220
2017-05-07T09:38:34.139Z,230
2017-05-07T09:39:44.398Z,230
2017-05-07T09:40:54.662Z,225
2017-05-07T09:42:04.931Z,225
2017-05-07T09:43:15.199Z,225
2017-05-07T09:44:25.495Z,225
2017-05-07T09:45:35.758Z,225
2017-05-07T09:46:46.032Z,225
2017-05-07T09:47:56.293Z,225
2017-05-07T09:49:06.560Z,225
2017-05-07T09:50:16.818Z,225
2017-05-07T09:51:27.087Z,225
2017-05-07T09:52:37.040Z,225
2017-05-07T09:53:47.307Z,230
2017-05-07T09:54:57.563Z,230
2017-05-07T09:56:07.824Z,230
2017-05-07T09:57:17.778Z,230
2017-05-07T09:58:28.045Z,230
2017-05-07T09:59:38.313Z,230
2017-05-07T10:00:48.262Z,230
2017-05-07T10:01:58.211Z,230
2017-05-07T10:03:08.476Z,230
2017-05-07T10:04:18.430Z,230
2017-05-07T10:05:28.381Z,230
2017-05-07T10:06:38.690Z,230
2017-05-07T10:07:48.952Z,230
2017-05-07T10:08:59.206Z,235
2017-05-07T10:10:09.469Z,235
2017-05-07T10:11:19.737Z,235
2017-05-07T10:12:30.007Z,235
2017-05-07T10:13:40.269Z,240
2017-05-07T10:14:50.577Z,240
2017-05-07T10:16:00.840Z,240
2017-05-07T10:17:11.106Z,240
2017-05-07T10:18:21.369Z,240
2017-05-07T10:19:31.634Z,240
2017-05-07T10:20:41.901Z,240
2017-05-07T10:21:51.848Z,240
2017-05-07T10:23:01.797Z,240
2017-05-07T10:24:12.058Z,240
2017-05-07T10:25:22.326Z,240
2017-05-07T10:26:32.590Z,240
2017-05-07T10:27:42.860Z,240
2017-05-07T10:28:52.806Z,240
2017-05-07T10:30:02.750Z,245
2017-05-07T10:31:12.701Z,245
2017-05-07T10:32:22.644Z,245
2017-05-07T10:33:32.598Z,245
2017-05-07T10:34:42.859Z,245
2017-05-07T10:35:53.119Z,245
2017-05-07T10:37:03.390Z,250
2017-05-07T10:38:13.653Z,250
2017-05-07T10:39:23.910Z,255
2017-05-07T10:40:34.184Z,250
2017-05-07T10:41:44.460Z,250
2017-05-07T10:42:54.723Z,250
2017-05-07T10:44:04.676Z,255
2017-05-07T10:45:14.946Z,255
2017-05-07T10:46:25.237Z,255
2017-05-07T10:47:35.181Z,255
2017-05-07T10:48:45.443Z,255
2017-05-07T10:49:55.705Z,255
2017-05-07T10:51:05.657Z,255
2017-05-07T10:52:15.948Z,255
2017-05-07T10:53:25.901Z,255
2017-05-07T10:54:36.169Z,260
2017-05-07T10:55:46.430Z,260
2017-05-07T10:56:56.694Z,260
2017-05-07T10:58:06.969Z,260
2017-05-07T10:59:17.233Z,260
2017-05-07T11:00:27.507Z,260
2017-05-07T11:01:37.457Z,265
2017-05-07T11:02:47.725Z,265
2017-05-07T11:03:57.988Z,265
2017-05-07T11:05:08.265Z,265
2017-05-07T11:06:18.217Z,265
2017-05-07T11:07:28.165Z,270
2017-05-07T11:08:38.116Z,270
2017-05-07T11:09:48.071Z,270
2017-05-07T11:10:58.335Z,270
2017-05-07T11:12:07.975Z,275
2017-05-07T11:13:17.922Z,275
2017-05-07T11:14:28.182Z,275
2017-05-07T11:15:38.447Z,275
2017-05-07T11:16:48.714Z,280
2017-05-07T11:17:58.350Z,280
2017-05-07T11:19:08.614Z,285
2017-05-07T11:20:18.881Z,285
2017-05-07T11:21:29.149Z,290
2017-05-07T11:22:39.422Z,315
2017-05-07T11:23:49.695Z,1240
2017-05-07T11:24:59.954Z,2600
2017-05-07T11:26:09.589Z,3015
2017-05-07T11:27:19.854Z,2800
2017-05-07T11:28:30.121Z,2675
2017-05-07T11:29:40.073Z,2925
2017-05-07T11:30:50.342Z,2745
2017-05-07T11:32:00.614Z,2845
2017-05-07T11:33:10.880Z,2920
2017-05-07T11:34:20.520Z,2875
2017-05-07T11:35:30.793Z,2855
2017-05-07T11:36:41.065Z,2940
2017-05-07T11:37:51.344Z,2775
2017-05-07T11:39:01.624Z,2765
2017-05-07T11:40:11.586Z,2930
2017-05-07T11:41:21.552Z,3005
2017-05-07T11:42:31.826Z,2990
2017-05-07T11:43:42.098Z,2695
2017-05-07T11:44:52.375Z,2895
2017-05-07T11:46:02.656Z,2585
2017-05-07T11:47:12.303Z,2425
2017-05-07T11:48:22.260Z,2580
2017-05-07T11:49:32.551Z,2830
2017-05-07T11:50:42.825Z,2900
2017-05-07T11:51:52.783Z,2840
2017-05-07T11:53:03.070Z,2915
2017-05-07T11:54:13.353Z,2595
2017-05-07T11:55:23.627Z,2825
2017-05-07T11:56:33.593Z,3025
2017-05-07T11:57:43.878Z,2865
2017-05-07T11:58:53.853Z,3135
2017-05-07T12:00:04.137Z,3075
2017-05-07T12:01:14.410Z,3035
2017-05-07T12:02:24.684Z,3065
2017-05-07T12:03:34.987Z,2720
2017-05-07T12:04:44.949Z,2855
2017-05-07T12:05:54.915Z,3040
2017-05-07T12:07:04.885Z,3155
2017-05-07T12:08:15.167Z,3095
2017-05-07T12:09:25.446Z,3055
2017-05-07T12:10:35.411Z,3300
2017-05-07T12:11:45.696Z,3065
2017-05-07T12:12:55.658Z,2860
2017-05-07T12:14:05.938Z,3265
2017-05-07T12:15:15.908Z,3160
2017-05-07T12:16:26.185Z,3180
2017-05-07T12:17:36.469Z,2950
2017-05-07T12:18:46.746Z,2595
2017-05-07T12:19:57.020Z,2825
2017-05-07T12:21:06.989Z,2820
2017-05-07T12:22:16.956Z,2735
2017-05-07T12:23:27.235Z,2765
2017-05-07T12:24:37.529Z,2545
2017-05-07T12:25:47.497Z,2275
2017-05-07T12:26:57.780Z,2290
2017-05-07T12:28:07.743Z,2260
2017-05-07T12:29:17.400Z,2200
2017-05-07T12:30:27.671Z,2395
2017-05-07T12:31:37.951Z,2475
2017-05-07T12:32:48.225Z,2490
2017-05-07T12:33:58.184Z,2445
2017-05-07T12:35:08.143Z,2255
2017-05-07T12:36:18.108Z,2210
2017-05-07T12:37:28.074Z,2100
2017-05-07T12:38:38.355Z,1940
2017-05-07T12:39:48.638Z,1965
2017-05-07T12:40:59.215Z,2060
2017-05-07T12:42:09.491Z,2065
2017-05-07T12:43:19.456Z,2130
2017-05-07T12:44:29.737Z,2900
2017-05-07T12:45:40.012Z,2745
2017-05-07T12:46:50.301Z,2420
2017-05-07T12:48:00.269Z,2605
2017-05-07T12:49:10.555Z,2815
2017-05-07T12:50:20.837Z,2785
2017-05-07T12:51:30.801Z,2800
2017-05-07T12:52:41.078Z,3490
2017-05-07T12:53:51.365Z,3880
2017-05-07T12:55:01.645Z,3460
2017-05-07T12:56:11.615Z,3190
2017-05-07T12:57:21.895Z,3145
2017-05-07T12:58:32.175Z,3030
2017-05-07T12:59:42.455Z,3355
2017-05-07T13:00:52.735Z,3450
2017-05-07T13:02:03.026Z,3430
2017-05-07T13:03:13.304Z,3500
2017-05-07T13:04:23.268Z,3395
2017-05-07T13:05:33.234Z,3395
2017-05-07T13:06:43.512Z,3390
2017-05-07T13:07:53.792Z,3305
2017-05-07T13:09:04.068Z,3465
2017-05-07T13:10:14.366Z,3585
2017-05-07T13:11:24.646Z,3445
2017-05-07T13:12:34.933Z,3215
2017-05-07T13:13:45.207Z,3165
2017-05-07T13:14:54.856Z,3460
2017-05-07T13:16:04.819Z,3515
2017-05-07T13:17:14.795Z,3375
2017-05-07T13:18:24.764Z,3635
2017-05-07T13:19:34.737Z,3385
2017-05-07T13:20:45.016Z,3265
2017-05-07T13:21:54.985Z,3350
2017-05-07T13:23:05.267Z,3375
2017-05-07T13:24:15.548Z,3245
2017-05-07T13:25:25.835Z,2975
2017-05-07T13:26:36.114Z,2845
2017-05-07T13:27:46.688Z,2865
2017-05-07T13:28:56.966Z,2810
2017-05-07T13:30:07.251Z,2480
2017-05-07T13:31:17.552Z,2835
2017-05-07T13:32:27.829Z,2945
2017-05-07T13:33:38.110Z,3150
2017-05-07T13:34:48.395Z,3200
2017-05-07T13:35:58.675Z,3315
2017-05-07T13:37:08.643Z,3495
2017-05-07T13:38:18.925Z,3385
2017-05-07T13:39:29.204Z,3355
2017-05-07T13:40:39.483Z,3405
2017-05-07T13:41:49.758Z,3220
2017-05-07T13:43:00.041Z,3465
2017-05-07T13:44:10.006Z,3370
2017-05-07T13:45:20.287Z,3075
2017-05-07T13:46:30.563Z,3095
2017-05-07T13:47:40.841Z,3230
2017-05-07T13:48:51.116Z,3280
2017-05-07T13:50:01.397Z,3345
2017-05-07T13:51:11.358Z,3295
2017-05-07T13:52:21.324Z,3015
2017-05-07T13:53:31.605Z,2990
2017-05-07T13:54:41.884Z,3090
2017-05-07T13:55:52.160Z,3155
2017-05-07T13:57:02.434Z,3135
2017-05-07T13:58:12.713Z,3010
2017-05-07T13:59:22.991Z,3120
2017-05-07T14:00:33.262Z,3225
2017-05-07T14:01:43.234Z,3195
2017-05-07T14:02:53.515Z,3210
2017-05-07T14:04:03.802Z,3130
2017-05-07T14:05:13.776Z,3040
2017-05-07T14:06:23.744Z,3255
2017-05-07T14:07:33.715Z,3220
2017-05-07T14:08:44.003Z,3225
2017-05-07T14:09:54.279Z,3240
2017-05-07T14:11:04.561Z,3115
2017-05-07T14:12:14.536Z,3045
2017-05-07T14:13:24.818Z,3010
2017-05-07T14:14:35.102Z,2990
2017-05-07T14:15:45.390Z,3090
2017-05-07T14:16:55.673Z,3115
2017-05-07T14:18:05.651Z,2965
2017-05-07T14:19:15.933Z,2940
2017-05-07T14:20:26.209Z,3095
2017-05-07T14:21:36.489Z,2995
2017-05-07T14:22:46.141Z,3050
2017-05-07T14:23:56.415Z,3050
2017-05-07T14:25:06.699Z,3095
2017-05-07T14:26:16.982Z,3115
2017-05-07T14:27:27.263Z,3010
2017-05-07T14:28:37.543Z,3115
2017-05-07T14:29:47.511Z,3165
2017-05-07T14:30:57.791Z,2895
2017-05-07T14:32:07.769Z,2825
2017-05-07T14:33:18.056Z,3050
2017-05-07T14:34:28.014Z,3090
2017-05-07T14:35:38.295Z,3100
2017-05-07T14:36:48.576Z,3085
2017-05-07T14:37:58.851Z,2995
2017-05-07T14:39:08.819Z,2825
2017-05-07T14:40:18.788Z,2865
2017-05-07T14:41:28.762Z,2815
2017-05-07T14:42:39.049Z,2835
2017-05-07T14:43:49.332Z,2895
2017-05-07T14:44:59.612Z,2910
2017-05-07T14:46:09.581Z,2960
2017-05-07T14:47:19.872Z,2940
2017-05-07T14:48:30.172Z,2880
2017-05-07T14:49:40.140Z,2945
2017-05-07T14:50:50.421Z,3055
2017-05-07T14:52:00.692Z,2785
2017-05-07T14:53:10.971Z,2575
2017-05-07T14:54:21.246Z,2630
2017-05-07T14:55:31.530Z,2810
2017-05-07T14:56:41.822Z,2915
2017-05-07T14:57:51.158Z,2755
2017-05-07T14:59:01.124Z,2730
2017-05-07T15:00:11.411Z,2770
2017-05-07T15:01:21.689Z,950
2017-05-07T15:02:31.999Z,2520
2017-05-07T15:03:42.275Z,430
2017-05-07T15:04:52.551Z,1840
2017-05-07T15:06:02.516Z,1335
2017-05-07T15:07:12.803Z,2265
2017-05-07T15:08:22.130Z,2730
2017-05-07T15:09:32.094Z,2690
2017-05-07T15:10:42.379Z,2615
2017-05-07T15:11:52.667Z,2655
2017-05-07T15:13:02.940Z,2605
2017-05-07T15:14:12.276Z,2500
2017-05-07T15:15:21.921Z,2350
2017-05-07T15:16:32.202Z,2105
2017-05-07T15:17:41.848Z,1925
2017-05-07T15:18:50.554Z,1920
2017-05-07T15:20:00.197Z,1740
2017-05-07T15:21:08.911Z,2235
2017-05-07T15:22:17.934Z,815
2017-05-07T15:23:26.640Z,2670
2017-05-07T15:24:35.655Z,2645
2017-05-07T15:25:45.611Z,2710
2017-05-07T15:26:55.887Z,2710
2017-05-07T15:28:05.222Z,2605
2017-05-07T15:29:14.244Z,2600
2017-05-07T15:30:24.207Z,2700
2017-05-07T15:31:34.488Z,2605
2017-05-07T15:32:44.455Z,2525
2017-05-07T15:33:53.168Z,2455
2017-05-07T15:35:02.203Z,2585
2017-05-07T15:36:10.915Z,2540
2017-05-07T15:37:19.936Z,2570
2017-05-07T15:38:29.579Z,2485
2017-05-07T15:39:38.287Z,2255
2017-05-07T15:40:46.999Z,2215
2017-05-07T15:41:56.654Z,2045
2017-05-07T15:43:05.988Z,1690
2017-05-07T15:44:14.689Z,1495
2017-05-07T15:45:24.337Z,1385
2017-05-07T15:46:33.355Z,1535
2017-05-07T15:47:42.061Z,1840
2017-05-07T15:48:51.086Z,1895
2017-05-07T15:50:00.730Z,1540
2017-05-07T15:51:10.699Z,1350
2017-05-07T15:52:20.971Z,585
2017-05-07T15:53:31.245Z,815
2017-05-07T15:54:41.207Z,445
2017-05-07T15:55:50.539Z,695
2017-05-07T15:56:59.254Z,815
2017-05-07T15:58:08.290Z,850
2017-05-07T15:59:18.679Z,800
2017-05-07T16:00:28.946Z,665
2017-05-07T16:01:38.272Z,660
2017-05-07T16:02:46.980Z,685
2017-05-07T16:03:56.359Z,645
2017-05-07T16:05:06.047Z,670
2017-05-07T16:06:16.022Z,940
2017-05-07T16:07:26.302Z,900
2017-05-07T16:08:35.312Z,870
2017-05-07T16:09:44.337Z,800
2017-05-07T16:10:54.322Z,955
2017-05-07T16:12:03.021Z,750
2017-05-07T16:13:12.998Z,655
2017-05-07T16:14:22.636Z,440
2017-05-07T16:15:32.591Z,410